Time;durP1;ratioP1;P1;durP2;ratioP2;P2;SDS_P1;SDS_P2;PMS_P1;PMS_P2;Temp;Humidity;BMP_temperature;BMP_pressure;BME280_temperature;BME280_humidity;BME280_pressure;Samples;Min_cycle;Max_cycle;Signal;HPM_P1;HPM_P2
2021/03/24 00:01:03;;;;;;;10.40;7.50;;;;;;;6.82;50.07;100072.19;1858431;77;21117;-78
2021/03/24 00:03:30;;;;;;;9.70;7.40;;;;;;;6.79;50.02;100079.61;1858161;77;21133;-81
2021/03/24 00:05:58;;;;;;;12.43;8.20;;;;;;;6.76;50.08;100073.23;1858383;77;21124;-78
2021/03/24 00:08:26;;;;;;;10.00;7.92;;;;;;;6.78;50.14;100089.91;1858363;77;21631;-80
2021/03/24 00:10:53;;;;;;;10.43;7.92;;;;;;;6.77;50.29;100080.26;1858275;77;21046;-80
2021/03/24 00:13:20;;;;;;;10.05;7.75;;;;;;;6.74;50.41;100083.20;1858424;77;21124;-81
2021/03/24 00:15:49;;;;;;;;;;;;;;;6.72;50.45;100067.37;1840796;77;21151;-75
2021/03/24 00:18:16;;;;;;;8.78;6.65;;;;;;;6.70;50.47;100088.45;1791688;78;20213;-82
2021/03/24 00:20:44;;;;;;;8.68;6.17;;;;;;;6.66;50.64;100082.56;1824393;78;21151;-77
2021/03/24 00:23:12;;;;;;;8.88;7.50;;;;;;;6.65;50.75;100088.04;1824253;78;21121;-80
2021/03/24 00:25:44;;;;;;;10.20;8.35;;;;;;;6.63;50.91;100083.34;1824506;78;21492;-82
2021/03/24 00:28:12;;;;;;;12.07;8.80;;;;;;;6.67;50.97;100079.41;1824896;78;21054;-78
2021/03/24 00:30:43;;;;;;;9.05;8.00;;;;;;;6.65;51.15;100085.38;1795353;78;21081;-78
2021/03/24 00:33:13;;;;;;;11.30;8.80;;;;;;;6.63;51.18;100088.66;1824568;78;21141;-79
2021/03/24 00:35:42;;;;;;;8.60;6.62;;;;;;;6.64;51.14;100094.36;1824555;78;21073;-81
2021/03/24 00:38:10;;;;;;;10.60;7.55;;;;;;;6.60;51.19;100093.79;1824329;78;21481;-80
2021/03/24 00:40:41;;;;;;;10.53;8.08;;;;;;;6.58;51.48;100092.58;1824419;78;21121;-80
2021/03/24 00:43:10;;;;;;;11.75;8.40;;;;;;;6.56;51.53;100085.24;1824437;78;21591;-79
2021/03/24 00:45:39;;;;;;;12.07;8.85;;;;;;;6.55;51.61;100092.88;1824305;78;21125;-76
2021/03/24 00:48:28;;;;;;;10.00;7.50;;;;;;;6.54;51.70;100084.56;1824215;78;21138;-80
2021/03/24 00:50:56;;;;;;;10.95;8.40;;;;;;;6.51;51.79;100086.16;1824553;78;21599;-79
2021/03/24 00:53:24;;;;;;;11.25;8.23;;;;;;;6.50;51.98;100091.14;1824148;78;21113;-80
2021/03/24 00:55:52;;;;;;;12.25;8.60;;;;;;;6.50;52.08;100095.63;1824348;78;21073;-79
2021/03/24 00:58:22;;;;;;;17.02;9.80;;;;;;;6.46;52.25;100091.06;1824397;78;21078;-76
2021/03/24 01:00:50;;;;;;;10.78;8.98;;;;;;;6.47;52.32;100096.73;1824342;78;21062;-79
2021/03/24 01:03:20;;;;;;;12.55;8.68;;;;;;;6.48;52.25;100094.41;1824350;78;21141;-82
2021/03/24 01:05:48;;;;;;;10.68;8.33;;;;;;;6.50;52.17;100104.45;1824370;78;21112;-77
2021/03/24 01:08:23;;;;;;;9.95;8.25;;;;;;;6.51;52.14;100103.45;1824177;78;21116;-79
2021/03/24 01:10:51;;;;;;;10.85;8.48;;;;;;;6.53;52.08;100092.17;1824486;78;21022;-77
2021/03/24 01:13:20;;;;;;;10.70;8.13;;;;;;;6.52;52.18;100104.30;1825092;78;21125;-78
2021/03/24 01:15:49;;;;;;;12.73;8.08;;;;;;;6.47;52.21;100107.38;1824711;78;21101;-79
2021/03/24 01:18:18;;;;;;;9.68;6.95;;;;;;;6.47;52.18;100114.03;1824342;78;21081;-77
2021/03/24 01:20:46;;;;;;;10.50;7.05;;;;;;;6.47;52.13;100110.03;1824373;78;21117;-79
2021/03/24 01:23:14;;;;;;;9.90;7.03;;;;;;;6.49;52.19;100107.22;1824264;78;21105;-80
2021/03/24 01:25:42;;;;;;;9.30;7.42;;;;;;;6.58;52.20;100116.53;1824537;78;21476;-80
2021/03/24 01:28:22;;;;;;;9.70;7.42;;;;;;;6.61;52.07;100116.75;1824222;78;21556;-77
2021/03/24 01:30:56;;;;;;;10.78;7.67;;;;;;;6.62;51.95;100118.42;1824502;78;21058;-76
2021/03/24 01:33:25;;;;;;;10.08;7.20;;;;;;;6.63;51.89;100121.43;1824152;78;21133;-79
2021/03/24 01:35:55;;;;;;;9.08;6.65;;;;;;;6.61;51.78;100120.74;1824384;78;21488;-77
2021/03/24 01:38:22;;;;;;;8.33;6.83;;;;;;;6.58;52.00;100120.52;1824426;78;21124;-77
2021/03/24 01:40:57;;;;;;;10.60;7.50;;;;;;;6.56;51.99;100125.66;1824216;78;21050;-78
2021/03/24 01:43:32;;;;;;;10.25;7.72;;;;;;;6.52;52.19;100125.58;1833281;77;21168;-80
2021/03/24 01:46:26;;;;;;;9.98;7.60;;;;;;;6.48;52.17;100126.34;1817154;78;21133;-77
2021/03/24 01:49:02;;;;;;;9.60;6.58;;;;;;;6.47;52.17;100129.16;1822741;78;21074;-76
2021/03/24 01:51:50;;;;;;;10.20;7.20;;;;;;;6.46;52.22;100129.64;1803401;78;21081;-77
2021/03/24 01:54:29;;;;;;;10.43;6.87;;;;;;;6.48;52.31;100124.17;1769084;79;21130;-80
2021/03/24 01:57:14;;;;;;;9.93;7.83;;;;;;;6.47;52.21;100136.64;1836084;78;21160;-76
2021/03/24 01:59:41;;;;;;;12.65;7.30;;;;;;;6.46;52.11;100132.80;1836198;78;21730;-79
2021/03/24 02:02:15;;;;;;;9.15;6.83;;;;;;;6.45;52.06;100131.09;1836108;78;21723;-75
2021/03/24 02:04:42;;;;;;;8.23;6.42;;;;;;;6.44;52.06;100132.92;1835888;78;21108;-76
2021/03/24 02:07:23;;;;;;;9.90;7.05;;;;;;;6.46;52.05;100151.42;1836404;78;21057;-81
2021/03/24 02:10:10;;;;;;;9.48;7.05;;;;;;;6.47;52.02;100143.30;1836391;78;21112;-78
2021/03/24 02:12:58;;;;;;;10.28;7.15;;;;;;;6.46;52.05;100154.92;1836031;78;21168;-80
2021/03/24 02:15:32;;;;;;;9.45;7.30;;;;;;;6.44;51.99;100151.55;1836456;78;21100;-78
2021/03/24 02:18:00;;;;;;;6.75;5.42;;;;;;;6.44;51.86;100159.52;1836281;78;21088;-79
2021/03/24 02:20:43;;;;;;;6.65;5.50;;;;;;;6.42;51.80;100153.52;1806546;78;21137;-80
2021/03/24 02:23:29;;;;;;;9.13;5.70;;;;;;;6.43;51.72;100158.34;1836174;78;21524;-77
2021/03/24 02:26:24;;;;;;;10.20;7.53;;;;;;;6.41;51.76;100151.00;1836218;78;21108;-81
2021/03/24 02:28:51;;;;;;;10.08;7.05;;;;;;;6.37;51.96;100143.78;1836329;78;21457;-79
2021/03/24 02:31:19;;;;;;;;;;;;;;;6.38;51.93;100165.41;1809392;78;21132;-78
2021/03/24 02:33:47;;;;;;;11.28;7.35;;;;;;;6.39;51.88;100175.06;1833117;78;20481;-78
2021/03/24 02:36:17;;;;;;;10.15;6.83;;;;;;;6.37;51.80;100168.22;1825036;78;21081;-76
2021/03/24 02:38:47;;;;;;;8.20;6.42;;;;;;;6.37;51.75;100166.40;1800584;79;21180;-78
2021/03/24 02:41:16;;;;;;;8.83;6.80;;;;;;;6.37;51.86;100177.53;1799642;79;21081;-79
2021/03/24 02:43:43;;;;;;;11.88;7.12;;;;;;;6.35;51.74;100175.83;1836261;78;21062;-76
2021/03/24 02:46:11;;;;;;;11.05;8.10;;;;;;;6.34;51.73;100175.97;1836352;78;21073;-76
2021/03/24 02:48:40;;;;;;;8.20;6.17;;;;;;;6.31;51.72;100178.44;1836299;78;21069;-79
2021/03/24 02:51:21;;;;;;;11.10;7.05;;;;;;;6.33;51.79;100179.62;1836458;78;21128;-77
2021/03/24 02:53:52;;;;;;;8.75;6.22;;;;;;;6.30;51.84;100192.69;1836079;78;21029;-72
2021/03/24 02:56:21;;;;;;;9.20;6.60;;;;;;;6.25;51.92;100190.09;1835696;78;21081;-77
2021/03/24 02:58:50;;;;;;;;;;;;;;;6.22;52.10;100183.70;1821534;78;21594;-79
2021/03/24 03:01:24;;;;;;;12.98;8.13;;;;;;;6.20;52.07;100193.66;1794492;78;20226;-78
2021/03/24 03:04:00;;;;;;;9.43;6.30;;;;;;;6.18;52.09;100187.65;1794384;78;21079;-78
2021/03/24 03:06:28;;;;;;;10.78;7.17;;;;;;;6.19;52.03;100186.17;1824021;78;21597;-77
2021/03/24 03:09:06;;;;;;;8.78;6.17;;;;;;;6.21;51.98;100191.34;1794870;78;21142;-80
2021/03/24 03:12:00;;;;;;;10.98;7.33;;;;;;;6.26;51.85;100195.27;1824565;78;23045;-77
2021/03/24 03:14:51;;;;;;;11.53;6.60;;;;;;;6.25;51.74;100186.11;1791724;80;21122;-76
2021/03/24 03:17:23;;;;;;;11.12;7.08;;;;;;;6.25;51.73;100198.91;1824337;78;21140;-79
2021/03/24 03:20:02;;;;;;;10.60;7.12;;;;;;;6.26;51.76;100197.09;1792049;80;21069;-78
2021/03/24 03:22:32;;;;;;;13.58;8.15;;;;;;;6.26;51.72;100201.91;1761592;80;21136;-77
2021/03/24 03:25:17;;;;;;;9.48;6.40;;;;;;;6.27;51.65;100205.45;1792125;80;21062;-80
2021/03/24 03:27:44;;;;;;;9.38;5.95;;;;;;;6.29;51.64;100203.48;1792668;80;21160;-78
2021/03/24 03:30:14;;;;;;;10.20;6.37;;;;;;;6.26;51.64;100206.40;1792095;80;21085;-79
2021/03/24 03:32:42;;;;;;;11.38;7.05;;;;;;;6.26;51.56;100218.37;1792007;80;21176;-79
2021/03/24 03:35:14;;;;;;;11.33;7.00;;;;;;;6.23;51.68;100216.00;1793037;80;21077;-75
2021/03/24 03:37:41;;;;;;;12.90;7.33;;;;;;;6.25;51.59;100229.99;1792585;80;21504;-78
2021/03/24 03:40:14;;;;;;;10.18;7.12;;;;;;;6.24;51.56;100223.00;1793243;80;21485;-73
2021/03/24 03:42:41;;;;;;;12.03;7.62;;;;;;;6.26;51.54;100230.34;1793619;80;21160;-76
2021/03/24 03:45:11;;;;;;;9.43;6.42;;;;;;;6.26;51.47;100236.49;1793294;80;21097;-75
2021/03/24 03:47:42;;;;;;;8.75;6.12;;;;;;;6.26;51.46;100239.64;1793390;80;21097;-78
2021/03/24 03:50:16;;;;;;;10.90;7.17;;;;;;;6.24;51.46;100229.64;1792912;80;21057;-80
2021/03/24 03:53:08;;;;;;;14.00;7.60;;;;;;;6.22;51.49;100241.76;1791818;80;21196;-81
2021/03/24 03:56:03;;;;;;;11.63;7.00;;;;;;;6.23;51.46;100248.75;1791453;80;21195;-81
2021/03/24 03:58:51;;;;;;;9.20;6.70;;;;;;;6.22;51.71;100244.88;1791881;80;21100;-79
2021/03/24 04:01:25;;;;;;;9.65;6.97;;;;;;;6.21;51.70;100252.02;1791452;80;21140;-80
2021/03/24 04:04:13;;;;;;;7.28;5.80;;;;;;;6.26;51.59;100246.30;1804369;78;21489;-76
2021/03/24 04:06:59;;;;;;;;;;;;;;;6.21;51.64;100256.50;1827208;78;21488;-82
2021/03/24 04:09:27;;;;;;;7.80;6.15;;;;;;;6.20;51.59;100258.81;1824073;78;20239;-79
2021/03/24 04:11:55;;;;;;;9.93;6.65;;;;;;;6.19;51.47;100262.45;1830033;77;21177;-80
2021/03/24 04:14:28;;;;;;;11.22;7.60;;;;;;;6.17;51.38;100268.38;1829275;77;21153;-80
2021/03/24 04:16:55;;;;;;;10.13;6.60;;;;;;;6.16;51.41;100261.39;1823366;78;21176;-79
2021/03/24 04:19:28;;;;;;;10.00;6.87;;;;;;;6.17;51.37;100281.68;1823362;78;21065;-77
2021/03/24 04:21:59;;;;;;;10.13;7.08;;;;;;;6.15;51.43;100269.02;1819556;78;21148;-78
2021/03/24 04:24:32;;;;;;;9.53;6.50;;;;;;;6.13;51.37;100270.95;1842457;77;21129;-80
2021/03/24 04:27:01;;;;;;;13.22;8.43;;;;;;;6.13;51.41;100272.28;1837203;78;21152;-79
2021/03/24 04:29:33;;;;;;;8.35;6.40;;;;;;;6.10;51.50;100274.74;1835873;78;21185;-79
2021/03/24 04:32:02;;;;;;;9.03;6.28;;;;;;;6.07;51.49;100273.17;1802701;79;21152;-76
2021/03/24 04:34:30;;;;;;;10.55;7.22;;;;;;;6.07;51.53;100287.80;1823699;78;21175;-75
2021/03/24 04:37:25;;;;;;;11.30;6.95;;;;;;;6.06;51.61;100287.95;1833594;78;21481;-80
2021/03/24 04:39:59;;;;;;;10.45;7.28;;;;;;;6.07;51.61;100291.79;1820326;78;21575;-80
2021/03/24 04:42:53;;;;;;;11.08;7.25;;;;;;;6.06;51.77;100294.10;1810127;78;21216;-79
2021/03/24 04:45:43;;;;;;;8.18;5.90;;;;;;;6.06;51.87;100288.78;1778585;79;21120;-76
2021/03/24 04:48:19;;;;;;;9.35;6.42;;;;;;;6.05;52.03;100295.09;1851772;77;21624;-78
2021/03/24 04:50:57;;;;;;;11.08;6.95;;;;;;;6.04;52.09;100296.06;1856552;77;21579;-76
2021/03/24 04:53:26;;;;;;;10.80;7.25;;;;;;;6.00;52.20;100301.29;1823668;78;21484;-78
2021/03/24 04:55:53;;;;;;;8.30;6.20;;;;;;;5.97;52.37;100305.53;1856976;77;21165;-75
2021/03/24 04:58:31;;;;;;;8.63;6.53;;;;;;;5.96;52.51;100300.36;1829265;77;21572;-78
2021/03/24 05:01:10;;;;;;;9.45;6.53;;;;;;;5.95;52.54;100312.81;1858336;77;21129;-78
2021/03/24 05:03:45;;;;;;;8.70;5.92;;;;;;;6.01;52.59;100309.61;1820369;76;22812;-77
2021/03/24 05:06:38;;;;;;;9.75;6.65;;;;;;;5.98;52.44;100309.03;1736933;82;21675;-77
2021/03/24 05:09:06;;;;;;;10.53;6.85;;;;;;;6.01;52.48;100315.42;1743160;81;21144;-76
2021/03/24 05:12:03;;;;;;;8.13;6.20;;;;;;;5.98;52.43;100317.84;1710931;82;21691;-78
2021/03/24 05:14:53;;;;;;;9.45;6.58;;;;;;;5.95;52.56;100306.62;1726429;81;21667;-77
2021/03/24 05:17:33;;;;;;;9.90;6.12;;;;;;;5.98;52.61;100328.48;1734522;80;21209;-78
2021/03/24 05:20:15;;;;;;;9.03;6.22;;;;;;;6.00;52.40;100330.54;1793150;77;21226;-76
2021/03/24 05:22:45;;;;;;;11.25;6.85;;;;;;;5.99;52.57;100321.34;1790310;77;21200;-76
2021/03/24 05:25:32;;;;;;;9.13;6.45;;;;;;;5.99;52.59;100336.80;1803087;77;21169;-76
2021/03/24 05:28:32;;;;;;;9.10;6.07;;;;;;;5.98;52.54;100324.49;1794245;77;21117;-76
2021/03/24 05:31:14;;;;;;;9.98;6.33;;;;;;;5.98;52.69;100338.27;1782815;77;21177;-78
2021/03/24 05:33:45;;;;;;;11.35;5.95;;;;;;;6.02;52.75;100336.55;1789932;77;21184;-77
2021/03/24 05:36:25;;;;;;;8.65;5.30;;;;;;;6.05;52.68;100331.47;1794366;79;21172;-76
2021/03/24 05:38:53;;;;;;;10.72;6.60;;;;;;;6.06;52.71;100330.48;1780530;79;21121;-79
2021/03/24 05:41:46;;;;;;;10.28;6.20;;;;;;;6.06;52.67;100341.97;1791325;79;20998;-77
2021/03/24 05:44:34;;;;;;;9.70;6.65;;;;;;;6.06;52.73;100344.63;1803032;77;21089;-78
2021/03/24 05:47:26;;;;;;;10.15;6.72;;;;;;;6.07;52.72;100348.95;1787053;77;21672;-75
2021/03/24 05:50:29;;;;;;;10.08;7.25;;;;;;;6.07;52.72;100348.13;1789863;79;21110;-76
2021/03/24 05:53:02;;;;;;;8.75;5.53;;;;;;;6.07;52.72;100356.94;1782198;79;21117;-79
2021/03/24 05:56:13;;;;;;;9.78;6.03;;;;;;;6.04;52.92;100359.88;1784171;78;21121;-78
2021/03/24 05:58:57;;;;;;;9.78;5.75;;;;;;;6.02;53.14;100356.98;1785868;77;21169;-77
2021/03/24 06:01:42;;;;;;;9.30;6.25;;;;;;;6.04;53.00;100354.56;1799332;77;21505;-78
2021/03/24 06:04:45;;;;;;;8.45;5.95;;;;;;;6.10;52.93;100359.34;1826427;76;22743;-75
2021/03/24 06:07:41;;;;;;;8.78;5.60;;;;;;;6.08;52.82;100368.41;1799076;77;21579;-78
2021/03/24 06:10:45;;;;;;;8.70;6.40;;;;;;;6.11;52.86;100372.15;1803172;78;21149;-77
2021/03/24 06:13:17;;;;;;;8.68;5.95;;;;;;;6.14;52.76;100371.05;1772681;79;21157;-76
2021/03/24 06:16:13;;;;;;;15.38;6.80;;;;;;;6.07;52.77;100364.91;1730879;81;21164;-78
2021/03/24 06:19:04;;;;;;;12.28;7.70;;;;;;;6.08;52.82;100377.23;1737129;80;21253;-77
2021/03/24 06:21:59;;;;;;;10.03;6.83;;;;;;;6.07;52.73;100375.55;1798313;77;21172;-75
2021/03/24 06:24:50;;;;;;;9.63;6.72;;;;;;;6.10;52.75;100399.23;1795706;77;21884;-77
2021/03/24 06:27:35;;;;;;;9.55;6.30;;;;;;;6.14;52.68;100398.48;1794273;77;21371;-75
2021/03/24 06:30:32;;;;;;;10.10;6.53;;;;;;;6.14;52.67;100395.83;1740377;81;21376;-76
2021/03/24 06:33:33;;;;;;;8.83;6.50;;;;;;;6.13;52.72;100398.11;1733827;80;21212;-75
2021/03/24 06:36:53;;;;;;;11.25;6.60;;;;;;;6.12;52.71;100386.28;1790194;77;21184;-78
2021/03/24 06:39:47;;;;;;;10.40;6.70;;;;;;;6.10;52.66;100399.23;1790685;77;21209;-75
2021/03/24 06:42:35;;;;;;;9.15;6.35;;;;;;;6.09;52.70;100404.20;1792929;77;21212;-78
2021/03/24 06:45:23;;;;;;;9.25;6.35;;;;;;;6.14;52.65;100417.59;1792932;77;21204;-75
2021/03/24 06:48:05;;;;;;;9.63;6.65;;;;;;;6.17;52.53;100407.52;1770006;77;21204;-76
2021/03/24 06:51:02;;;;;;;12.55;8.10;;;;;;;6.17;52.43;100417.31;1791595;77;21084;-77
2021/03/24 06:54:15;;;;;;;9.75;6.33;;;;;;;6.16;52.42;100420.46;1795985;77;21626;-76
2021/03/24 06:57:14;;;;;;;10.70;6.37;;;;;;;6.18;52.40;100419.86;1789774;77;21177;-74
2021/03/24 07:00:32;;;;;;;9.10;6.33;;;;;;;6.19;52.32;100424.20;1793154;77;20991;-77
2021/03/24 07:03:31;;;;;;;9.55;5.75;;;;;;;6.20;52.25;100427.70;1792913;79;21557;-76
2021/03/24 07:06:18;;;;;;;11.30;6.55;;;;;;;6.19;52.21;100419.37;1794596;77;21588;-78
2021/03/24 07:09:32;;;;;;;13.10;7.10;;;;;;;6.20;52.04;100431.69;1790408;77;21141;-77
2021/03/24 07:12:17;;;;;;;11.30;6.72;;;;;;;6.19;51.93;100449.47;1793283;77;21136;-77
2021/03/24 07:15:06;;;;;;;10.15;7.12;;;;;;;6.23;51.65;100434.09;1795084;77;21121;-78
2021/03/24 07:18:00;;;;;;;8.98;6.33;;;;;;;6.23;51.31;100432.77;1760912;79;21117;-75
2021/03/24 07:21:10;;;;;;;10.75;7.40;;;;;;;6.22;51.46;100439.91;1767616;77;21105;-75
2021/03/24 07:24:16;;;;;;;10.63;6.87;;;;;;;6.29;51.35;100445.53;1797244;77;21133;-77
2021/03/24 07:27:01;;;;;;;7.80;5.97;;;;;;;6.32;51.17;100431.48;1796264;77;21185;-78
2021/03/24 07:29:57;;;;;;;10.03;8.23;;;;;;;6.38;51.04;100450.55;1798749;77;21584;-75
2021/03/24 07:32:52;;;;;;;10.20;7.33;;;;;;;6.43;50.87;100445.19;1801828;77;21096;-78
2021/03/24 07:35:34;;;;;;;14.68;7.20;;;;;;;6.45;50.81;100455.23;1787835;77;21540;-75
2021/03/24 07:38:40;;;;;;;11.88;7.22;;;;;;;6.46;50.66;100466.22;1775205;77;21164;-76
2021/03/24 07:41:35;;;;;;;12.53;7.28;;;;;;;6.50;50.66;100457.00;1704642;81;21631;-76
2021/03/24 07:44:26;;;;;;;10.85;7.65;;;;;;;6.59;50.70;100471.34;1731846;81;21133;-76
2021/03/24 07:47:08;;;;;;;12.68;8.15;;;;;;;6.66;50.46;100476.47;1699616;81;21733;-76
2021/03/24 07:50:11;;;;;;;10.78;7.37;;;;;;;6.73;50.23;100467.48;1737218;79;21175;-76
2021/03/24 07:53:06;;;;;;;9.53;7.20;;;;;;;6.77;50.02;100466.23;1790604;77;21666;-77
2021/03/24 07:55:44;;;;;;;11.12;7.95;;;;;;;6.84;49.79;100486.84;1791672;77;21588;-79
2021/03/24 07:58:51;;;;;;;12.78;7.95;;;;;;;6.91;49.98;100476.52;1761489;77;21613;-79
2021/03/24 08:01:42;;;;;;;12.30;7.97;;;;;;;6.98;49.74;100488.80;1727342;80;21102;-77
2021/03/24 08:04:33;;;;;;;11.65;8.13;;;;;;;7.05;49.70;100496.12;1734662;79;21604;-77
2021/03/24 08:07:28;;;;;;;12.80;8.25;;;;;;;7.11;49.58;100492.91;1789643;77;21012;-78
2021/03/24 08:10:36;;;;;;;13.48;8.53;;;;;;;7.21;49.27;100503.59;1779720;77;21114;-78
2021/03/24 08:13:24;;;;;;;10.48;6.75;;;;;;;7.32;49.18;100496.01;1788005;77;21129;-79
2021/03/24 08:16:36;;;;;;;13.05;7.83;;;;;;;7.44;48.76;100502.05;1793533;77;21729;-77
2021/03/24 08:19:44;;;;;;;11.97;7.70;;;;;;;7.54;48.78;100521.56;1762663;77;21815;-79
2021/03/24 08:22:32;;;;;;;11.80;8.68;;;;;;;7.60;48.55;100523.20;1796412;77;21123;-79
2021/03/24 08:25:42;;;;;;;12.73;8.55;;;;;;;7.65;48.54;100518.80;1799794;77;21187;-77
2021/03/24 08:28:40;;;;;;;12.47;8.78;;;;;;;7.62;48.19;100522.56;1799682;77;21144;-79
2021/03/24 08:31:58;;;;;;;13.72;9.03;;;;;;;7.61;48.02;100540.88;1796225;77;21153;-78
2021/03/24 08:35:13;;;;;;;12.25;7.58;;;;;;;7.59;47.79;100530.02;1798606;77;21169;-81
2021/03/24 08:37:58;;;;;;;11.00;7.83;;;;;;;7.55;47.65;100529.44;1797314;77;21166;-78
2021/03/24 08:41:03;;;;;;;10.35;7.72;;;;;;;7.52;47.39;100535.03;1775916;77;21111;-80
2021/03/24 08:44:00;;;;;;;13.53;8.90;;;;;;;7.46;47.48;100541.41;1733946;81;21200;-77
2021/03/24 08:46:46;;;;;;;10.45;8.23;;;;;;;7.45;47.71;100540.58;1743190;79;21122;-75
2021/03/24 08:49:25;;;;;;;11.10;7.47;;;;;;;7.47;47.69;100544.42;1794224;77;21125;-77
2021/03/24 08:52:09;;;;;;;12.07;8.23;;;;;;;7.51;48.18;100544.52;1800517;77;21127;-80
2021/03/24 08:55:08;;;;;;;13.30;9.25;;;;;;;7.54;48.27;100541.55;1802084;77;21157;-76
2021/03/24 08:58:05;;;;;;;12.18;8.13;;;;;;;7.58;48.01;100542.97;1796135;77;21057;-77
2021/03/24 09:01:08;;;;;;;11.08;8.15;;;;;;;7.60;47.76;100543.20;1797703;77;21106;-76
2021/03/24 09:04:20;;;;;;;13.22;9.33;;;;;;;7.62;47.55;100529.72;1794750;77;21137;-79
2021/03/24 09:06:57;;;;;;;19.87;11.53;;;;;;;7.62;47.62;100535.89;1791108;77;21142;-78
2021/03/24 09:09:51;;;;;;;31.62;14.50;;;;;;;7.65;47.60;100538.78;1786792;77;21169;-77
2021/03/24 09:12:46;;;;;;;19.45;11.30;;;;;;;7.72;47.34;100535.06;1764463;78;24079;-77
2021/03/24 09:15:36;;;;;;;22.35;12.55;;;;;;;7.69;47.37;100536.70;1701328;80;21171;-78
2021/03/24 09:18:20;;;;;;;19.15;11.33;;;;;;;7.73;47.13;100540.77;1708828;80;21169;-76
2021/03/24 09:21:13;;;;;;;21.35;11.00;;;;;;;7.76;47.08;100550.65;1735080;80;21156;-77
2021/03/24 09:24:21;;;;;;;18.90;10.85;;;;;;;7.81;47.19;100540.44;1709996;80;21189;-78
2021/03/24 09:27:35;;;;;;;16.57;9.63;;;;;;;7.84;46.98;100550.81;1740326;80;21094;-76
2021/03/24 09:30:26;;;;;;;12.63;8.53;;;;;;;7.89;46.96;100555.23;1729888;80;21133;-76
2021/03/24 09:33:35;;;;;;;13.20;8.70;;;;;;;7.92;46.73;100555.46;1730108;80;21151;-77
2021/03/24 09:36:47;;;;;;;18.75;10.23;;;;;;;7.94;46.90;100552.16;1732239;80;21147;-76
2021/03/24 09:39:53;;;;;;;13.22;8.28;;;;;;;7.96;46.85;100544.88;1738015;80;21157;-76
2021/03/24 09:42:47;;;;;;;14.33;8.73;;;;;;;7.97;46.66;100551.88;1750307;79;21213;-77
2021/03/24 09:45:21;;;;;;;12.95;9.38;;;;;;;7.98;46.35;100560.23;1752237;79;21042;-77
2021/03/24 09:48:14;;;;;;;20.37;9.43;;;;;;;8.00;46.04;100555.61;1751105;79;21656;-75
2021/03/24 09:51:03;;;;;;;12.93;9.03;;;;;;;8.04;45.79;100541.02;1704073;80;21145;-74
2021/03/24 09:53:35;;;;;;;15.72;9.73;;;;;;;8.11;45.41;100538.63;1747335;79;21101;-73
2021/03/24 09:56:07;;;;;;;12.30;7.55;;;;;;;8.13;45.47;100540.18;1694727;79;21584;-77
2021/03/24 09:58:53;;;;;;;14.58;8.58;;;;;;;8.16;45.16;100530.20;1718861;79;21181;-74
2021/03/24 10:01:48;;;;;;;12.45;8.45;;;;;;;8.20;44.63;100544.45;1745698;79;21157;-79
2021/03/24 10:04:54;;;;;;;16.77;9.43;;;;;;;8.21;44.62;100539.95;1766654;79;21978;-78
2021/03/24 10:07:27;;;;;;;15.63;9.00;;;;;;;8.28;44.90;100532.58;1736172;80;21145;-77
2021/03/24 10:10:15;;;;;;;17.27;8.68;;;;;;;8.36;44.92;100519.88;1708679;80;21143;-79
2021/03/24 10:13:03;;;;;;;13.20;8.65;;;;;;;8.44;44.67;100524.02;1734729;80;21146;-78
2021/03/24 10:16:04;;;;;;;11.20;7.87;;;;;;;8.54;44.60;100534.21;1733265;80;21401;-79
2021/03/24 10:19:01;;;;;;;12.35;8.10;;;;;;;8.69;43.89;100515.90;1827274;76;22702;-75
2021/03/24 10:21:52;;;;;;;14.15;9.20;;;;;;;8.72;43.76;100526.77;1795384;77;21128;-77
2021/03/24 10:24:32;;;;;;;15.90;8.38;;;;;;;8.79;43.80;100519.88;1795377;77;21188;-78
2021/03/24 10:27:11;;;;;;;14.40;8.70;;;;;;;8.84;43.33;100521.61;1797335;77;21090;-76
2021/03/24 10:30:19;;;;;;;12.00;7.80;;;;;;;8.90;43.30;100504.99;1768560;77;21337;-77
2021/03/24 10:33:20;;;;;;;12.35;8.23;;;;;;;8.93;43.08;100514.06;1780388;77;21134;-77
2021/03/24 10:36:04;;;;;;;13.43;8.93;;;;;;;8.99;43.09;100511.29;1772296;77;21150;-74
2021/03/24 10:39:17;;;;;;;11.15;8.18;;;;;;;9.02;43.45;100509.17;1769863;77;21688;-76
2021/03/24 10:42:20;;;;;;;13.43;9.05;;;;;;;9.08;43.41;100520.62;1796920;77;21147;-75
2021/03/24 10:45:00;;;;;;;13.70;8.08;;;;;;;9.14;43.34;100511.17;1756952;80;21275;-76
2021/03/24 10:47:40;;;;;;;12.65;8.48;;;;;;;9.19;43.16;100513.41;1752198;79;21606;-80
2021/03/24 10:50:16;;;;;;;11.80;8.53;;;;;;;9.22;43.04;100515.76;1792432;77;21200;-76
2021/03/24 10:53:10;;;;;;;11.12;7.75;;;;;;;9.24;42.98;100512.46;1796627;77;21219;-79
2021/03/24 10:55:39;;;;;;;11.05;7.85;;;;;;;9.28;42.97;100509.84;1797660;77;21086;-76
2021/03/24 10:58:42;;;;;;;12.93;8.28;;;;;;;9.28;42.97;100508.51;1798123;77;21129;-75
2021/03/24 11:01:28;;;;;;;12.93;8.23;;;;;;;9.28;43.15;100508.01;1797142;77;21127;-76
2021/03/24 11:04:36;;;;;;;10.82;7.97;;;;;;;9.29;42.67;100500.83;1799229;77;21113;-73
2021/03/24 11:07:33;;;;;;;10.65;7.20;;;;;;;9.28;42.11;100497.81;1802954;77;21678;-75
2021/03/24 11:10:13;;;;;;;10.68;7.85;;;;;;;9.28;42.17;100501.83;1756352;80;21153;-74
2021/03/24 11:12:45;;;;;;;12.28;7.85;;;;;;;9.30;42.16;100501.16;1721657;80;21133;-75
2021/03/24 11:15:40;;;;;;;10.13;7.87;;;;;;;9.31;41.91;100501.51;1713507;80;21144;-76
2021/03/24 11:18:12;;;;;;;10.15;7.72;;;;;;;9.31;41.96;100509.53;1727751;80;21150;-77
2021/03/24 11:20:52;;;;;;;9.35;7.45;;;;;;;9.34;42.03;100505.23;1736048;80;21142;-76
2021/03/24 11:23:51;;;;;;;11.40;7.95;;;;;;;9.35;42.37;100494.37;1738518;80;21159;-76
2021/03/24 11:26:50;;;;;;;11.45;7.72;;;;;;;9.40;42.46;100500.14;1736912;80;21608;-76
2021/03/24 11:29:41;;;;;;;9.15;7.00;;;;;;;9.45;42.13;100503.70;1701288;81;21129;-78
2021/03/24 11:32:39;;;;;;;11.30;7.87;;;;;;;9.43;42.00;100486.11;1750654;80;21112;-77
2021/03/24 11:35:24;;;;;;;13.90;8.95;;;;;;;9.40;41.92;100490.79;1641407;85;21792;-78
2021/03/24 11:38:30;;;;;;;12.68;8.55;;;;;;;9.35;41.54;100500.22;1724454;81;21116;-78
2021/03/24 11:41:36;;;;;;;11.83;9.00;;;;;;;9.38;41.33;100494.59;1790329;75;23915;-77
2021/03/24 11:44:17;;;;;;;14.25;9.23;;;;;;;9.32;41.60;100500.54;1783464;78;21115;-76
2021/03/24 11:47:01;;;;;;;15.53;10.23;;;;;;;9.31;41.64;100505.05;1785391;78;21195;-79
2021/03/24 11:50:00;;;;;;;15.08;9.73;;;;;;;9.29;41.97;100499.49;1750576;78;21147;-76
2021/03/24 11:53:12;;;;;;;13.55;9.53;;;;;;;9.29;42.40;100502.16;1755678;78;21690;-77
2021/03/24 11:56:15;;;;;;;16.60;10.93;;;;;;;9.29;42.71;100510.19;1776712;78;21659;-76
2021/03/24 11:59:19;;;;;;;14.15;9.58;;;;;;;9.31;42.22;100504.18;1756440;78;21223;-78
2021/03/24 12:02:16;;;;;;;12.63;9.35;;;;;;;9.31;41.86;100512.20;1782088;78;21235;-76
2021/03/24 12:04:55;;;;;;;;;;;;;;;9.29;41.95;100507.52;1786197;78;21198;-78
2021/03/24 12:07:43;;;;;;;14.50;10.05;;;;;;;9.26;42.08;100511.31;1784992;78;20314;-78
2021/03/24 12:10:42;;;;;;;12.58;9.03;;;;;;;9.26;41.83;100518.48;1790297;78;21325;-78
2021/03/24 12:13:32;;;;;;;13.85;10.40;;;;;;;9.28;41.81;100512.52;1785070;78;21318;-76
2021/03/24 12:16:09;;;;;;;14.83;10.78;;;;;;;9.30;42.13;100523.39;1785343;78;20997;-82
2021/03/24 12:18:51;;;;;;;13.72;9.40;;;;;;;9.34;42.52;100512.75;1754137;80;21825;-79
2021/03/24 12:21:33;;;;;;;14.63;9.75;;;;;;;9.39;42.63;100518.98;1736621;80;21462;-78
2021/03/24 12:24:27;;;;;;;13.22;9.70;;;;;;;9.42;42.41;100513.35;1736525;80;21187;-79
2021/03/24 12:27:20;;;;;;;16.85;10.40;;;;;;;9.44;42.23;100513.19;1707985;80;21120;-76
2021/03/24 12:30:05;;;;;;;13.32;9.38;;;;;;;9.45;42.32;100520.22;1736858;80;21659;-78
2021/03/24 12:32:39;;;;;;;11.00;7.67;;;;;;;9.48;42.36;100511.91;1739562;80;21133;-76
2021/03/24 12:35:23;;;;;;;11.78;8.38;;;;;;;9.50;42.09;100509.94;1715377;80;21132;-77
2021/03/24 12:37:56;;;;;;;12.73;8.98;;;;;;;9.49;41.76;100511.74;1746379;79;21132;-80
2021/03/24 12:40:28;;;;;;;10.00;8.58;;;;;;;9.48;41.72;100500.70;1732445;79;21124;-79
2021/03/24 12:43:11;;;;;;;12.20;9.28;;;;;;;9.49;41.39;100502.39;1743201;80;21131;-77
2021/03/24 12:45:41;;;;;;;11.95;7.97;;;;;;;9.85;40.76;100504.60;1737149;80;21139;-76
2021/03/24 12:48:13;;;;;;;10.40;8.23;;;;;;;9.91;40.42;100513.38;1750189;80;21112;-78